sensor_id;sensor_type;location;lat;lon;timestamp;temperature;humidity
15983;DHT22;14442;50.196;8.096;2023-05-14T00:02:14;20.40;54.90
15983;DHT22;14442;50.196;8.096;2023-05-14T00:04:42;20.40;54.80
15983;DHT22;14442;50.196;8.096;2023-05-14T00:07:08;20.40;54.80
15983;DHT22;14442;50.196;8.096;2023-05-14T00:09:36;20.40;54.80
15983;DHT22;14442;50.196;8.096;2023-05-14T00:12:03;20.40;54.80
15983;DHT22;14442;50.196;8.096;2023-05-14T00:14:30;20.30;54.70
15983;DHT22;14442;50.196;8.096;2023-05-14T00:16:56;20.30;54.70
15983;DHT22;14442;50.196;8.096;2023-05-14T00:19:24;20.30;54.70
15983;DHT22;14442;50.196;8.096;2023-05-14T00:21:52;20.30;54.70
15983;DHT22;14442;50.196;8.096;2023-05-14T00:24:18;20.30;54.70
15983;DHT22;14442;50.196;8.096;2023-05-14T00:26:45;20.30;54.70
15983;DHT22;14442;50.196;8.096;2023-05-14T00:29:12;20.30;54.70
15983;DHT22;14442;50.196;8.096;2023-05-14T00:31:38;20.20;54.60
15983;DHT22;14442;50.196;8.096;2023-05-14T00:34:05;20.20;54.60
15983;DHT22;14442;50.196;8.096;2023-05-14T00:36:32;20.20;54.60
15983;DHT22;14442;50.196;8.096;2023-05-14T00:39:00;20.20;54.60
15983;DHT22;14442;50.196;8.096;2023-05-14T00:41:26;20.20;54.60
15983;DHT22;14442;50.196;8.096;2023-05-14T00:43:53;20.10;54.60
15983;DHT22;14442;50.196;8.096;2023-05-14T00:46:20;20.20;54.60
15983;DHT22;14442;50.196;8.096;2023-05-14T00:48:47;20.10;54.50
15983;DHT22;14442;50.196;8.096;2023-05-14T00:51:14;20.10;54.40
15983;DHT22;14442;50.196;8.096;2023-05-14T00:53:41;20.10;54.40
15983;DHT22;14442;50.196;8.096;2023-05-14T00:56:09;20.00;54.40
15983;DHT22;14442;50.196;8.096;2023-05-14T00:58:36;20.00;54.30
15983;DHT22;14442;50.196;8.096;2023-05-14T01:01:05;20.00;54.40
15983;DHT22;14442;50.196;8.096;2023-05-14T01:03:32;20.00;54.40
15983;DHT22;14442;50.196;8.096;2023-05-14T01:06:08;20.00;54.40
15983;DHT22;14442;50.196;8.096;2023-05-14T01:08:43;20.00;54.50
15983;DHT22;14442;50.196;8.096;2023-05-14T01:11:18;20.00;54.40
15983;DHT22;14442;50.196;8.096;2023-05-14T01:13:50;20.00;54.40
15983;DHT22;14442;50.196;8.096;2023-05-14T01:16:19;19.90;54.30
15983;DHT22;14442;50.196;8.096;2023-05-14T01:18:49;20.00;54.40
15983;DHT22;14442;50.196;8.096;2023-05-14T01:21:33;19.90;54.30
15983;DHT22;14442;50.196;8.096;2023-05-14T01:24:01;19.90;54.40
15983;DHT22;14442;50.196;8.096;2023-05-14T01:26:28;19.90;54.30
15983;DHT22;14442;50.196;8.096;2023-05-14T01:28:59;19.90;54.30
15983;DHT22;14442;50.196;8.096;2023-05-14T01:31:27;19.90;54.40
15983;DHT22;14442;50.196;8.096;2023-05-14T01:33:57;19.80;54.30
15983;DHT22;14442;50.196;8.096;2023-05-14T01:36:27;19.80;54.20
15983;DHT22;14442;50.196;8.096;2023-05-14T01:38:55;19.80;54.30
15983;DHT22;14442;50.196;8.096;2023-05-14T01:41:23;19.80;54.20
15983;DHT22;14442;50.196;8.096;2023-05-14T01:43:51;19.80;54.20
15983;DHT22;14442;50.196;8.096;2023-05-14T01:46:18;19.80;54.30
15983;DHT22;14442;50.196;8.096;2023-05-14T01:48:45;19.80;54.30
15983;DHT22;14442;50.196;8.096;2023-05-14T01:51:11;19.70;54.20
15983;DHT22;14442;50.196;8.096;2023-05-14T01:53:40;19.70;54.20
15983;DHT22;14442;50.196;8.096;2023-05-14T01:56:07;19.70;54.20
15983;DHT22;14442;50.196;8.096;2023-05-14T01:58:34;19.70;54.20
15983;DHT22;14442;50.196;8.096;2023-05-14T02:01:00;19.70;54.20
15983;DHT22;14442;50.196;8.096;2023-05-14T02:03:27;19.70;54.20
15983;DHT22;14442;50.196;8.096;2023-05-14T02:05:53;19.70;54.20
15983;DHT22;14442;50.196;8.096;2023-05-14T02:08:20;19.70;54.20
15983;DHT22;14442;50.196;8.096;2023-05-14T02:10:48;19.70;54.30
15983;DHT22;14442;50.196;8.096;2023-05-14T02:13:15;19.70;54.20
15983;DHT22;14442;50.196;8.096;2023-05-14T02:15:42;19.70;54.20
15983;DHT22;14442;50.196;8.096;2023-05-14T02:18:09;19.60;54.10
15983;DHT22;14442;50.196;8.096;2023-05-14T02:20:35;19.60;54.20
15983;DHT22;14442;50.196;8.096;2023-05-14T02:23:02;19.60;54.20
15983;DHT22;14442;50.196;8.096;2023-05-14T02:25:29;19.60;54.10
15983;DHT22;14442;50.196;8.096;2023-05-14T02:27:57;19.60;54.20
15983;DHT22;14442;50.196;8.096;2023-05-14T02:30:23;19.60;54.30
15983;DHT22;14442;50.196;8.096;2023-05-14T02:32:50;19.60;54.30
15983;DHT22;14442;50.196;8.096;2023-05-14T02:35:17;19.50;54.10
15983;DHT22;14442;50.196;8.096;2023-05-14T02:37:43;19.50;54.20
15983;DHT22;14442;50.196;8.096;2023-05-14T02:40:10;19.50;54.20
15983;DHT22;14442;50.196;8.096;2023-05-14T02:42:37;19.50;54.10
15983;DHT22;14442;50.196;8.096;2023-05-14T02:45:06;19.50;54.20
15983;DHT22;14442;50.196;8.096;2023-05-14T02:47:33;19.50;54.20
15983;DHT22;14442;50.196;8.096;2023-05-14T02:50:00;19.50;54.10
15983;DHT22;14442;50.196;8.096;2023-05-14T02:52:26;19.40;54.10
15983;DHT22;14442;50.196;8.096;2023-05-14T02:54:53;19.50;54.20
15983;DHT22;14442;50.196;8.096;2023-05-14T02:57:20;19.50;54.20
15983;DHT22;14442;50.196;8.096;2023-05-14T02:59:46;19.50;54.20
15983;DHT22;14442;50.196;8.096;2023-05-14T03:02:14;19.50;54.20
15983;DHT22;14442;50.196;8.096;2023-05-14T03:04:41;19.40;54.10
15983;DHT22;14442;50.196;8.096;2023-05-14T03:07:07;19.50;54.20
15983;DHT22;14442;50.196;8.096;2023-05-14T03:09:34;19.40;54.10
15983;DHT22;14442;50.196;8.096;2023-05-14T03:12:01;19.40;54.10
15983;DHT22;14442;50.196;8.096;2023-05-14T03:14:27;19.40;54.00
15983;DHT22;14442;50.196;8.096;2023-05-14T03:16:54;19.40;54.10
15983;DHT22;14442;50.196;8.096;2023-05-14T03:19:22;19.40;54.10
15983;DHT22;14442;50.196;8.096;2023-05-14T03:21:49;19.40;54.00
15983;DHT22;14442;50.196;8.096;2023-05-14T03:24:15;19.40;54.10
15983;DHT22;14442;50.196;8.096;2023-05-14T03:26:42;19.40;54.10
15983;DHT22;14442;50.196;8.096;2023-05-14T03:29:09;19.40;54.00
15983;DHT22;14442;50.196;8.096;2023-05-14T03:31:35;19.30;53.90
15983;DHT22;14442;50.196;8.096;2023-05-14T03:34:02;19.30;53.90
15983;DHT22;14442;50.196;8.096;2023-05-14T03:36:31;19.30;53.90
15983;DHT22;14442;50.196;8.096;2023-05-14T03:38:58;19.30;53.90
15983;DHT22;14442;50.196;8.096;2023-05-14T03:41:25;19.30;53.90
15983;DHT22;14442;50.196;8.096;2023-05-14T03:43:51;19.30;53.90
15983;DHT22;14442;50.196;8.096;2023-05-14T03:46:18;19.30;53.80
15983;DHT22;14442;50.196;8.096;2023-05-14T03:48:45;19.30;53.90
15983;DHT22;14442;50.196;8.096;2023-05-14T03:51:11;19.40;53.90
15983;DHT22;14442;50.196;8.096;2023-05-14T03:53:39;19.30;53.80
15983;DHT22;14442;50.196;8.096;2023-05-14T03:56:06;19.30;53.80
15983;DHT22;14442;50.196;8.096;2023-05-14T03:58:33;19.30;53.90
15983;DHT22;14442;50.196;8.096;2023-05-14T04:00:59;19.30;53.80
15983;DHT22;14442;50.196;8.096;2023-05-14T04:03:26;19.30;53.80
15983;DHT22;14442;50.196;8.096;2023-05-14T04:05:52;19.30;53.80
15983;DHT22;14442;50.196;8.096;2023-05-14T04:08:19;19.30;53.80
15983;DHT22;14442;50.196;8.096;2023-05-14T04:10:48;19.30;53.80
15983;DHT22;14442;50.196;8.096;2023-05-14T04:13:15;19.30;53.70
15983;DHT22;14442;50.196;8.096;2023-05-14T04:15:42;19.30;53.80
15983;DHT22;14442;50.196;8.096;2023-05-14T04:18:09;19.20;53.70
15983;DHT22;14442;50.196;8.096;2023-05-14T04:20:35;19.20;53.60
15983;DHT22;14442;50.196;8.096;2023-05-14T04:23:02;19.20;53.70
15983;DHT22;14442;50.196;8.096;2023-05-14T04:25:29;19.20;53.60
15983;DHT22;14442;50.196;8.096;2023-05-14T04:27:57;19.20;53.60
15983;DHT22;14442;50.196;8.096;2023-05-14T04:30:24;19.20;53.60
15983;DHT22;14442;50.196;8.096;2023-05-14T04:32:50;19.20;53.60
15983;DHT22;14442;50.196;8.096;2023-05-14T04:35:17;19.20;53.60
15983;DHT22;14442;50.196;8.096;2023-05-14T04:37:44;19.20;53.60
15983;DHT22;14442;50.196;8.096;2023-05-14T04:40:12;19.20;53.60
15983;DHT22;14442;50.196;8.096;2023-05-14T04:42:41;19.20;53.60
15983;DHT22;14442;50.196;8.096;2023-05-14T04:45:10;19.20;53.60
15983;DHT22;14442;50.196;8.096;2023-05-14T04:47:37;19.20;53.60
15983;DHT22;14442;50.196;8.096;2023-05-14T04:50:05;19.20;53.60
15983;DHT22;14442;50.196;8.096;2023-05-14T04:52:33;19.20;53.60
15983;DHT22;14442;50.196;8.096;2023-05-14T04:55:00;19.20;53.60
15983;DHT22;14442;50.196;8.096;2023-05-14T04:57:26;19.20;54.20
15983;DHT22;14442;50.196;8.096;2023-05-14T04:59:53;19.10;53.50
15983;DHT22;14442;50.196;8.096;2023-05-14T05:02:21;19.20;53.60
15983;DHT22;14442;50.196;8.096;2023-05-14T05:04:48;19.10;53.50
15983;DHT22;14442;50.196;8.096;2023-05-14T05:07:14;19.10;53.50
15983;DHT22;14442;50.196;8.096;2023-05-14T05:09:41;19.10;53.50
15983;DHT22;14442;50.196;8.096;2023-05-14T05:12:08;19.10;54.10
15983;DHT22;14442;50.196;8.096;2023-05-14T05:14:35;19.10;53.50
15983;DHT22;14442;50.196;8.096;2023-05-14T05:17:02;19.10;53.50
15983;DHT22;14442;50.196;8.096;2023-05-14T05:19:30;19.10;53.50
15983;DHT22;14442;50.196;8.096;2023-05-14T05:21:56;19.10;53.50
15983;DHT22;14442;50.196;8.096;2023-05-14T05:24:23;19.10;53.50
15983;DHT22;14442;50.196;8.096;2023-05-14T05:26:50;19.10;53.50
15983;DHT22;14442;50.196;8.096;2023-05-14T05:29:18;19.10;53.50
15983;DHT22;14442;50.196;8.096;2023-05-14T05:31:44;19.10;53.50
15983;DHT22;14442;50.196;8.096;2023-05-14T05:34:11;19.10;53.50
15983;DHT22;14442;50.196;8.096;2023-05-14T05:36:39;19.10;53.50
15983;DHT22;14442;50.196;8.096;2023-05-14T05:39:06;19.20;53.60
15983;DHT22;14442;50.196;8.096;2023-05-14T05:41:33;19.20;53.70
15983;DHT22;14442;50.196;8.096;2023-05-14T05:43:59;19.20;53.80
15983;DHT22;14442;50.196;8.096;2023-05-14T05:46:26;19.30;54.50
15983;DHT22;14442;50.196;8.096;2023-05-14T05:48:53;19.30;53.70
15983;DHT22;14442;50.196;8.096;2023-05-14T05:51:19;19.20;54.10
15983;DHT22;14442;50.196;8.096;2023-05-14T05:53:47;19.30;54.20
15983;DHT22;14442;50.196;8.096;2023-05-14T05:56:14;19.40;54.20
15983;DHT22;14442;50.196;8.096;2023-05-14T05:58:40;19.40;54.30
15983;DHT22;14442;50.196;8.096;2023-05-14T06:01:07;19.40;54.40
15983;DHT22;14442;50.196;8.096;2023-05-14T06:03:34;19.40;54.50
15983;DHT22;14442;50.196;8.096;2023-05-14T06:06:01;19.40;54.80
15983;DHT22;14442;50.196;8.096;2023-05-14T06:08:27;19.40;54.60
15983;DHT22;14442;50.196;8.096;2023-05-14T06:10:55;19.30;54.90
15983;DHT22;14442;50.196;8.096;2023-05-14T06:13:22;19.30;55.10
15983;DHT22;14442;50.196;8.096;2023-05-14T06:15:49;19.40;55.50
15983;DHT22;14442;50.196;8.096;2023-05-14T06:18:15;19.30;54.80
15983;DHT22;14442;50.196;8.096;2023-05-14T06:20:42;19.30;55.10
15983;DHT22;14442;50.196;8.096;2023-05-14T06:23:10;19.30;55.30
15983;DHT22;14442;50.196;8.096;2023-05-14T06:25:36;19.30;55.20
15983;DHT22;14442;50.196;8.096;2023-05-14T06:28:05;19.40;55.30
15983;DHT22;14442;50.196;8.096;2023-05-14T06:30:31;19.30;55.30
15983;DHT22;14442;50.196;8.096;2023-05-14T06:32:58;19.30;55.30
15983;DHT22;14442;50.196;8.096;2023-05-14T06:35:25;19.40;55.40
15983;DHT22;14442;50.196;8.096;2023-05-14T06:37:51;19.40;55.50
15983;DHT22;14442;50.196;8.096;2023-05-14T06:40:18;19.40;55.30
15983;DHT22;14442;50.196;8.096;2023-05-14T06:42:45;19.40;55.40
15983;DHT22;14442;50.196;8.096;2023-05-14T06:45:13;19.40;55.30
15983;DHT22;14442;50.196;8.096;2023-05-14T06:47:40;19.40;55.30
15983;DHT22;14442;50.196;8.096;2023-05-14T06:50:07;19.40;55.40
15983;DHT22;14442;50.196;8.096;2023-05-14T06:52:34;19.40;55.50
15983;DHT22;14442;50.196;8.096;2023-05-14T06:55:00;19.30;56.00
15983;DHT22;14442;50.196;8.096;2023-05-14T06:57:27;19.40;55.40
15983;DHT22;14442;50.196;8.096;2023-05-14T06:59:53;19.40;55.40
15983;DHT22;14442;50.196;8.096;2023-05-14T07:02:22;19.40;55.40
15983;DHT22;14442;50.196;8.096;2023-05-14T07:04:48;19.40;55.30
15983;DHT22;14442;50.196;8.096;2023-05-14T07:07:15;19.50;55.80
15983;DHT22;14442;50.196;8.096;2023-05-14T07:09:44;19.40;55.80
15983;DHT22;14442;50.196;8.096;2023-05-14T07:12:11;19.50;55.90
15983;DHT22;14442;50.196;8.096;2023-05-14T07:14:38;19.50;56.00
15983;DHT22;14442;50.196;8.096;2023-05-14T07:17:04;19.50;55.80
15983;DHT22;14442;50.196;8.096;2023-05-14T07:19:32;19.50;55.80
15983;DHT22;14442;50.196;8.096;2023-05-14T07:21:59;19.50;55.90
15983;DHT22;14442;50.196;8.096;2023-05-14T07:24:26;19.50;55.90
15983;DHT22;14442;50.196;8.096;2023-05-14T07:26:53;19.50;56.00
15983;DHT22;14442;50.196;8.096;2023-05-14T07:29:21;19.60;56.30
15983;DHT22;14442;50.196;8.096;2023-05-14T07:31:49;19.60;56.60
15983;DHT22;14442;50.196;8.096;2023-05-14T07:34:16;19.60;56.30
15983;DHT22;14442;50.196;8.096;2023-05-14T07:36:45;19.60;56.40
15983;DHT22;14442;50.196;8.096;2023-05-14T07:39:11;19.70;56.30
15983;DHT22;14442;50.196;8.096;2023-05-14T07:41:38;19.70;56.20
15983;DHT22;14442;50.196;8.096;2023-05-14T07:44:05;19.80;56.20
15983;DHT22;14442;50.196;8.096;2023-05-14T07:46:31;19.80;56.10
15983;DHT22;14442;50.196;8.096;2023-05-14T07:48:58;19.80;56.20
15983;DHT22;14442;50.196;8.096;2023-05-14T07:51:24;19.80;56.20
15983;DHT22;14442;50.196;8.096;2023-05-14T07:53:54;19.90;55.70
15983;DHT22;14442;50.196;8.096;2023-05-14T07:56:21;19.90;55.70
15983;DHT22;14442;50.196;8.096;2023-05-14T07:58:47;19.90;55.70
15983;DHT22;14442;50.196;8.096;2023-05-14T08:01:14;20.00;56.30
15983;DHT22;14442;50.196;8.096;2023-05-14T08:03:40;20.00;55.50
15983;DHT22;14442;50.196;8.096;2023-05-14T08:06:07;20.00;55.60
15983;DHT22;14442;50.196;8.096;2023-05-14T08:08:34;20.10;55.60
15983;DHT22;14442;50.196;8.096;2023-05-14T08:11:02;20.10;55.70
15983;DHT22;14442;50.196;8.096;2023-05-14T08:13:29;20.10;55.70
15983;DHT22;14442;50.196;8.096;2023-05-14T08:15:56;20.10;55.70
15983;DHT22;14442;50.196;8.096;2023-05-14T08:18:23;20.10;55.80
15983;DHT22;14442;50.196;8.096;2023-05-14T08:20:49;20.10;55.60
15983;DHT22;14442;50.196;8.096;2023-05-14T08:23:16;20.20;55.50
15983;DHT22;14442;50.196;8.096;2023-05-14T08:25:43;20.10;55.50
15983;DHT22;14442;50.196;8.096;2023-05-14T08:28:11;20.10;55.60
15983;DHT22;14442;50.196;8.096;2023-05-14T08:30:38;20.10;55.40
15983;DHT22;14442;50.196;8.096;2023-05-14T08:33:04;20.20;55.60
15983;DHT22;14442;50.196;8.096;2023-05-14T08:35:31;20.20;55.70
15983;DHT22;14442;50.196;8.096;2023-05-14T08:37:57;20.20;55.30
15983;DHT22;14442;50.196;8.096;2023-05-14T08:40:25;20.20;55.50
15983;DHT22;14442;50.196;8.096;2023-05-14T08:45:26;20.20;55.30
15983;DHT22;14442;50.196;8.096;2023-05-14T08:47:54;20.30;55.20
15983;DHT22;14442;50.196;8.096;2023-05-14T08:50:21;20.40;55.10
15983;DHT22;14442;50.196;8.096;2023-05-14T08:52:48;20.50;55.10
15983;DHT22;14442;50.196;8.096;2023-05-14T08:55:15;20.50;55.10
15983;DHT22;14442;50.196;8.096;2023-05-14T08:57:41;20.40;55.50
15983;DHT22;14442;50.196;8.096;2023-05-14T09:00:09;20.40;55.60
15983;DHT22;14442;50.196;8.096;2023-05-14T09:02:39;20.40;55.70
15983;DHT22;14442;50.196;8.096;2023-05-14T09:05:07;20.40;55.90
15983;DHT22;14442;50.196;8.096;2023-05-14T09:07:35;20.40;55.90
15983;DHT22;14442;50.196;8.096;2023-05-14T09:10:02;20.40;56.00
15983;DHT22;14442;50.196;8.096;2023-05-14T09:12:29;20.50;56.00
15983;DHT22;14442;50.196;8.096;2023-05-14T09:14:56;20.50;55.90
15983;DHT22;14442;50.196;8.096;2023-05-14T09:17:25;20.50;55.80
15983;DHT22;14442;50.196;8.096;2023-05-14T09:19:53;20.50;55.80
15983;DHT22;14442;50.196;8.096;2023-05-14T09:22:20;20.50;55.70
15983;DHT22;14442;50.196;8.096;2023-05-14T09:25:01;20.60;55.50
15983;DHT22;14442;50.196;8.096;2023-05-14T09:27:29;20.70;55.70
15983;DHT22;14442;50.196;8.096;2023-05-14T09:30:03;20.70;55.40
15983;DHT22;14442;50.196;8.096;2023-05-14T09:32:35;20.70;55.30
15983;DHT22;14442;50.196;8.096;2023-05-14T09:35:13;20.80;55.40
15983;DHT22;14442;50.196;8.096;2023-05-14T09:37:42;20.80;55.30
15983;DHT22;14442;50.196;8.096;2023-05-14T09:40:09;20.80;55.30
15983;DHT22;14442;50.196;8.096;2023-05-14T09:42:36;20.80;55.20
15983;DHT22;14442;50.196;8.096;2023-05-14T09:45:04;20.90;55.30
15983;DHT22;14442;50.196;8.096;2023-05-14T09:47:30;20.90;55.10
15983;DHT22;14442;50.196;8.096;2023-05-14T09:49:57;20.90;54.80
15983;DHT22;14442;50.196;8.096;2023-05-14T09:52:26;20.90;54.70
15983;DHT22;14442;50.196;8.096;2023-05-14T09:54:53;20.90;54.60
15983;DHT22;14442;50.196;8.096;2023-05-14T09:57:20;20.90;54.60
15983;DHT22;14442;50.196;8.096;2023-05-14T09:59:46;21.00;54.50
15983;DHT22;14442;50.196;8.096;2023-05-14T10:02:18;21.00;54.50
15983;DHT22;14442;50.196;8.096;2023-05-14T10:04:47;21.00;54.50
15983;DHT22;14442;50.196;8.096;2023-05-14T10:07:18;21.10;54.60
15983;DHT22;14442;50.196;8.096;2023-05-14T10:09:46;21.10;54.60
15983;DHT22;14442;50.196;8.096;2023-05-14T10:12:15;21.00;54.90
15983;DHT22;14442;50.196;8.096;2023-05-14T10:14:47;20.90;54.80
15983;DHT22;14442;50.196;8.096;2023-05-14T10:17:18;21.10;54.90
15983;DHT22;14442;50.196;8.096;2023-05-14T10:19:49;21.10;54.80
15983;DHT22;14442;50.196;8.096;2023-05-14T10:22:22;21.10;54.80
15983;DHT22;14442;50.196;8.096;2023-05-14T10:24:50;21.10;54.70
15983;DHT22;14442;50.196;8.096;2023-05-14T10:27:18;21.10;54.70
15983;DHT22;14442;50.196;8.096;2023-05-14T10:29:50;21.20;55.50
15983;DHT22;14442;50.196;8.096;2023-05-14T10:32:20;21.20;54.70
15983;DHT22;14442;50.196;8.096;2023-05-14T10:34:47;21.20;54.50
15983;DHT22;14442;50.196;8.096;2023-05-14T10:37:15;21.20;54.60
15983;DHT22;14442;50.196;8.096;2023-05-14T10:39:44;21.40;54.40
15983;DHT22;14442;50.196;8.096;2023-05-14T10:42:14;21.40;54.30
15983;DHT22;14442;50.196;8.096;2023-05-14T10:44:48;21.40;54.20
15983;DHT22;14442;50.196;8.096;2023-05-14T10:47:15;21.40;54.20
15983;DHT22;14442;50.196;8.096;2023-05-14T10:49:43;21.50;54.20
15983;DHT22;14442;50.196;8.096;2023-05-14T10:52:15;21.60;54.10
15983;DHT22;14442;50.196;8.096;2023-05-14T10:54:47;21.50;54.00
15983;DHT22;14442;50.196;8.096;2023-05-14T10:57:16;21.50;54.20
15983;DHT22;14442;50.196;8.096;2023-05-14T10:59:43;21.40;54.20
15983;DHT22;14442;50.196;8.096;2023-05-14T11:02:20;21.40;54.30
15983;DHT22;14442;50.196;8.096;2023-05-14T11:04:57;21.40;54.50
15983;DHT22;14442;50.196;8.096;2023-05-14T11:07:28;21.30;54.60
15983;DHT22;14442;50.196;8.096;2023-05-14T11:10:00;21.40;54.70
15983;DHT22;14442;50.196;8.096;2023-05-14T11:12:29;21.40;54.70
15983;DHT22;14442;50.196;8.096;2023-05-14T11:14:57;21.30;54.30
15983;DHT22;14442;50.196;8.096;2023-05-14T11:17:25;21.40;54.30
15983;DHT22;14442;50.196;8.096;2023-05-14T11:19:52;21.50;54.40
15983;DHT22;14442;50.196;8.096;2023-05-14T11:22:19;21.50;54.40
15983;DHT22;14442;50.196;8.096;2023-05-14T11:24:45;21.50;54.60
15983;DHT22;14442;50.196;8.096;2023-05-14T11:27:12;21.40;54.50
15983;DHT22;14442;50.196;8.096;2023-05-14T11:29:42;21.40;54.50
15983;DHT22;14442;50.196;8.096;2023-05-14T11:32:09;21.40;54.60
15983;DHT22;14442;50.196;8.096;2023-05-14T11:34:36;21.40;54.60
15983;DHT22;14442;50.196;8.096;2023-05-14T11:37:03;21.50;54.60
15983;DHT22;14442;50.196;8.096;2023-05-14T11:39:30;21.40;54.50
15983;DHT22;14442;50.196;8.096;2023-05-14T11:41:57;21.50;54.50
15983;DHT22;14442;50.196;8.096;2023-05-14T11:44:24;21.40;54.50
15983;DHT22;14442;50.196;8.096;2023-05-14T11:46:56;21.50;54.70
15983;DHT22;14442;50.196;8.096;2023-05-14T11:49:23;21.40;54.70
15983;DHT22;14442;50.196;8.096;2023-05-14T11:51:55;21.40;54.80
15983;DHT22;14442;50.196;8.096;2023-05-14T11:54:24;21.40;54.80
15983;DHT22;14442;50.196;8.096;2023-05-14T11:56:51;21.40;54.70
15983;DHT22;14442;50.196;8.096;2023-05-14T11:59:18;21.40;54.70
15983;DHT22;14442;50.196;8.096;2023-05-14T12:01:45;21.40;54.80
15983;DHT22;14442;50.196;8.096;2023-05-14T12:04:13;21.40;54.70
15983;DHT22;14442;50.196;8.096;2023-05-14T12:06:40;21.40;54.70
15983;DHT22;14442;50.196;8.096;2023-05-14T12:09:06;21.40;54.70
15983;DHT22;14442;50.196;8.096;2023-05-14T12:11:35;21.40;54.60
15983;DHT22;14442;50.196;8.096;2023-05-14T12:14:10;21.50;54.60
15983;DHT22;14442;50.196;8.096;2023-05-14T12:16:39;21.50;54.60
15983;DHT22;14442;50.196;8.096;2023-05-14T12:19:08;21.50;54.60
15983;DHT22;14442;50.196;8.096;2023-05-14T12:21:37;21.60;54.50
15983;DHT22;14442;50.196;8.096;2023-05-14T12:24:08;21.50;54.40
15983;DHT22;14442;50.196;8.096;2023-05-14T12:26:36;21.60;54.30
15983;DHT22;14442;50.196;8.096;2023-05-14T12:29:04;21.60;54.20
15983;DHT22;14442;50.196;8.096;2023-05-14T12:31:33;21.70;54.30
15983;DHT22;14442;50.196;8.096;2023-05-14T12:34:00;21.70;54.10
15983;DHT22;14442;50.196;8.096;2023-05-14T12:36:27;21.60;54.30
15983;DHT22;14442;50.196;8.096;2023-05-14T12:38:58;21.70;54.50
15983;DHT22;14442;50.196;8.096;2023-05-14T12:41:26;21.70;54.40
15983;DHT22;14442;50.196;8.096;2023-05-14T12:43:53;21.80;54.50
15983;DHT22;14442;50.196;8.096;2023-05-14T12:46:19;21.80;54.20
15983;DHT22;14442;50.196;8.096;2023-05-14T12:48:46;21.80;54.00
15983;DHT22;14442;50.196;8.096;2023-05-14T12:51:13;21.70;53.70
15983;DHT22;14442;50.196;8.096;2023-05-14T12:53:40;21.70;54.00
15983;DHT22;14442;50.196;8.096;2023-05-14T12:56:08;21.70;54.00
15983;DHT22;14442;50.196;8.096;2023-05-14T12:58:35;21.60;53.90
15983;DHT22;14442;50.196;8.096;2023-05-14T13:01:03;21.70;54.00
15983;DHT22;14442;50.196;8.096;2023-05-14T13:03:30;21.70;54.00
15983;DHT22;14442;50.196;8.096;2023-05-14T13:05:57;21.70;54.00
15983;DHT22;14442;50.196;8.096;2023-05-14T13:08:24;21.70;53.90
15983;DHT22;14442;50.196;8.096;2023-05-14T13:10:51;21.80;53.90
15983;DHT22;14442;50.196;8.096;2023-05-14T13:13:20;21.80;53.90
15983;DHT22;14442;50.196;8.096;2023-05-14T13:15:46;21.70;53.90
15983;DHT22;14442;50.196;8.096;2023-05-14T13:18:14;21.70;54.00
15983;DHT22;14442;50.196;8.096;2023-05-14T13:20:41;21.70;54.00
15983;DHT22;14442;50.196;8.096;2023-05-14T13:23:07;21.70;54.00
15983;DHT22;14442;50.196;8.096;2023-05-14T13:25:34;21.70;54.00
15983;DHT22;14442;50.196;8.096;2023-05-14T13:28:01;21.70;53.90
15983;DHT22;14442;50.196;8.096;2023-05-14T13:30:29;21.70;54.00
15983;DHT22;14442;50.196;8.096;2023-05-14T13:32:56;21.70;53.90
15983;DHT22;14442;50.196;8.096;2023-05-14T13:35:23;21.70;54.00
15983;DHT22;14442;50.196;8.096;2023-05-14T13:37:50;21.70;54.00
15983;DHT22;14442;50.196;8.096;2023-05-14T13:40:16;21.70;54.00
15983;DHT22;14442;50.196;8.096;2023-05-14T13:42:43;21.60;53.90
15983;DHT22;14442;50.196;8.096;2023-05-14T13:45:10;21.60;53.80
15983;DHT22;14442;50.196;8.096;2023-05-14T13:47:38;21.60;53.90
15983;DHT22;14442;50.196;8.096;2023-05-14T13:50:07;21.60;53.90
15983;DHT22;14442;50.196;8.096;2023-05-14T13:52:33;21.60;53.90
15983;DHT22;14442;50.196;8.096;2023-05-14T13:55:00;21.70;53.80
15983;DHT22;14442;50.196;8.096;2023-05-14T13:57:27;21.70;53.80
15983;DHT22;14442;50.196;8.096;2023-05-14T13:59:53;21.70;53.80
15983;DHT22;14442;50.196;8.096;2023-05-14T14:02:20;21.70;53.70
15983;DHT22;14442;50.196;8.096;2023-05-14T14:04:48;21.70;53.70
15983;DHT22;14442;50.196;8.096;2023-05-14T14:07:15;21.70;53.70
15983;DHT22;14442;50.196;8.096;2023-05-14T14:09:41;21.80;53.70
15983;DHT22;14442;50.196;8.096;2023-05-14T14:12:09;21.70;53.70
15983;DHT22;14442;50.196;8.096;2023-05-14T14:14:36;21.70;53.70
15983;DHT22;14442;50.196;8.096;2023-05-14T14:17:03;21.70;53.70
15983;DHT22;14442;50.196;8.096;2023-05-14T14:19:29;21.80;53.70
15983;DHT22;14442;50.196;8.096;2023-05-14T14:21:57;21.80;53.70
15983;DHT22;14442;50.196;8.096;2023-05-14T14:24:24;22.00;53.70
15983;DHT22;14442;50.196;8.096;2023-05-14T14:26:50;22.00;53.60
15983;DHT22;14442;50.196;8.096;2023-05-14T14:29:17;22.00;53.70
15983;DHT22;14442;50.196;8.096;2023-05-14T14:31:45;22.00;53.50
15983;DHT22;14442;50.196;8.096;2023-05-14T14:34:12;22.00;53.50
15983;DHT22;14442;50.196;8.096;2023-05-14T14:36:38;21.80;52.50
15983;DHT22;14442;50.196;8.096;2023-05-14T14:39:06;21.80;52.90
15983;DHT22;14442;50.196;8.096;2023-05-14T14:41:33;21.80;53.20
15983;DHT22;14442;50.196;8.096;2023-05-14T14:44:00;21.80;53.20
15983;DHT22;14442;50.196;8.096;2023-05-14T14:46:27;21.90;53.30
15983;DHT22;14442;50.196;8.096;2023-05-14T14:48:54;21.90;53.00
15983;DHT22;14442;50.196;8.096;2023-05-14T14:51:20;22.00;53.40
15983;DHT22;14442;50.196;8.096;2023-05-14T14:53:47;22.00;53.30
15983;DHT22;14442;50.196;8.096;2023-05-14T14:56:15;21.90;52.90
15983;DHT22;14442;50.196;8.096;2023-05-14T14:58:42;21.90;52.70
15983;DHT22;14442;50.196;8.096;2023-05-14T15:01:09;21.90;53.20
15983;DHT22;14442;50.196;8.096;2023-05-14T15:03:36;22.00;53.20
15983;DHT22;14442;50.196;8.096;2023-05-14T15:06:03;22.00;52.90
15983;DHT22;14442;50.196;8.096;2023-05-14T15:08:30;22.00;53.10
15983;DHT22;14442;50.196;8.096;2023-05-14T15:10:57;22.00;53.60
15983;DHT22;14442;50.196;8.096;2023-05-14T15:13:25;21.90;53.40
15983;DHT22;14442;50.196;8.096;2023-05-14T15:15:52;21.90;53.50
15983;DHT22;14442;50.196;8.096;2023-05-14T15:18:19;21.80;53.70
15983;DHT22;14442;50.196;8.096;2023-05-14T15:20:46;21.70;52.30
15983;DHT22;14442;50.196;8.096;2023-05-14T15:23:13;21.70;53.00
15983;DHT22;14442;50.196;8.096;2023-05-14T15:25:39;21.70;53.50
15983;DHT22;14442;50.196;8.096;2023-05-14T15:28:06;21.70;53.70
15983;DHT22;14442;50.196;8.096;2023-05-14T15:30:34;21.90;53.70
15983;DHT22;14442;50.196;8.096;2023-05-14T15:33:01;21.80;53.60
15983;DHT22;14442;50.196;8.096;2023-05-14T15:35:28;21.90;53.80